Del Norte International Airport
MMAN : now visible

Airfield :











YOU CAN JOIN US ON...

 
LOGIN :

Register | Disclaimer

   EN    FR    IT 

 









Legend :    VFR   Marginal VFR   IFR   Intensive IFR   Very Intensive IFR
Visi :
Ceiling :
>= 8 km
>= 3000ft
5 to 8 km
1000 to 3000 ft
1500m to 5 km
500 to 1000 ft
800 to 1500m
200 to 500 ft
< 800m
< 200 ft
Symbols :   Thunderstorms  Fog  Heavy snow  Heavy precipitations  Wind > 20 kt






- Airport Elevation : 1476 ft
- IATA code : NTR


MMAN - Del Norte International

CURRENT METAR :
  • 192140Z 11004KT 7SM FEW070 SCT200 33/20 A3001 RMK 8/031 HZY ISOL SC

EXPIRED METARs :
  • 192040Z 08006KT 7SM FEW030 FEW070 32/21 A3003 RMK SLP/// 5//// 9// 8/170 HZY ISOL SC
  • 191940Z 00000KT 6SM SCT030 32/23 A3005 RMK 8/500 HZY ISOL CI
  • 191840Z 13005KT 6SM FEW020 31/21 A3007 RMK 8/500 HZY ISOL CI
  • 191740Z 00000KT 6SM SCT030 30/22 A3009 RMK SLP/// 5//// 9// 8/500 HZY ISOL CI

TAF TAF MMAN
Valid from the 19 at 18:00 until the 20 at 18:00 UTC


191605Z 1918/2018 10010KT P6SM SCT030 SCT100 BKN250
FM200300 09004KT P6SM SCT250
BECMG 2009/2010 3SM BR SCT010
TEMPO 2010/2014 2SM BR BKN010
FM201500 11008KT 6SM HZ SKC
MMFR FIR / North America



MET'MAP, your aeronautical weather chart ! - Copyright ORBIFLY December 2007 - Disclaimer

ORBIFLY MET'MAP TEAM :

Programming & Development : Alexandra Zaïnal
Original concept : Baudouin d'Aumeries
Technical & hardware support : Manuel Goepfert
Assistance : Marc-Olivier Méhu




SOURCES & CREDITS :

   NOAA       Earth
Advisory